sensor_id;sensor_type;location;lat;lon;timestamp;pressure;altitude;pressure_sealevel;temperature;humidity
68137;BME280;54939;50.826;9.030;2024-01-10T00:00:15;99954.13;;;1.92;54.06
68137;BME280;54939;50.826;9.030;2024-01-10T00:00:45;99950.56;;;1.93;54.08
68137;BME280;54939;50.826;9.030;2024-01-10T00:01:16;99959.38;;;1.92;53.92
68137;BME280;54939;50.826;9.030;2024-01-10T00:01:46;99947.06;;;1.92;54.12
68137;BME280;54939;50.826;9.030;2024-01-10T00:02:16;99945.28;;;1.93;54.25
68137;BME280;54939;50.826;9.030;2024-01-10T00:02:47;99950.56;;;1.93;54.08
68137;BME280;54939;50.826;9.030;2024-01-10T00:03:17;99952.41;;;1.91;54.02
68137;BME280;54939;50.826;9.030;2024-01-10T00:03:47;99957.72;;;1.89;54.20
68137;BME280;54939;50.826;9.030;2024-01-10T00:04:18;99959.56;;;1.87;54.31
68137;BME280;54939;50.826;9.030;2024-01-10T00:04:48;99960.41;;;1.88;54.26
68137;BME280;54939;50.826;9.030;2024-01-10T00:05:18;99960.41;;;1.88;54.01
68137;BME280;54939;50.826;9.030;2024-01-10T00:05:49;99956.88;;;1.89;54.11
68137;BME280;54939;50.826;9.030;2024-01-10T00:06:19;99957.72;;;1.89;54.38
68137;BME280;54939;50.826;9.030;2024-01-10T00:06:49;99961.22;;;1.90;54.57
68137;BME280;54939;50.826;9.030;2024-01-10T00:07:19;99960.28;;;1.91;54.68
68137;BME280;54939;50.826;9.030;2024-01-10T00:07:49;99962.06;;;1.90;54.27
68137;BME280;54939;50.826;9.030;2024-01-10T00:08:20;99959.44;;;1.90;54.43
68137;BME280;54939;50.826;9.030;2024-01-10T00:08:50;99963.84;;;1.90;54.40
68137;BME280;54939;50.826;9.030;2024-01-10T00:09:21;99962.06;;;1.90;54.41
68137;BME280;54939;50.826;9.030;2024-01-10T00:09:51;99964.72;;;1.90;54.32
68137;BME280;54939;50.826;9.030;2024-01-10T00:10:21;99962.94;;;1.91;54.46
68137;BME280;54939;50.826;9.030;2024-01-10T00:10:52;99971.69;;;1.91;54.23
68137;BME280;54939;50.826;9.030;2024-01-10T00:11:24;99961.16;;;1.91;54.46
68137;BME280;54939;50.826;9.030;2024-01-10T00:11:54;99968.13;;;1.92;54.28
68137;BME280;54939;50.826;9.030;2024-01-10T00:12:25;99968.13;;;1.92;54.60
68137;BME280;54939;50.826;9.030;2024-01-10T00:12:55;99969.00;;;1.93;54.09
68137;BME280;54939;50.826;9.030;2024-01-10T00:13:25;99967.34;;;1.90;54.29
68137;BME280;54939;50.826;9.030;2024-01-10T00:13:56;99975.19;;;1.92;54.29
68137;BME280;54939;50.826;9.030;2024-01-10T00:14:29;99975.19;;;1.92;54.37
68137;BME280;54939;50.826;9.030;2024-01-10T00:15:00;99971.69;;;1.91;54.22
68137;BME280;54939;50.826;9.030;2024-01-10T00:15:30;99979.59;;;1.91;54.54
68137;BME280;54939;50.826;9.030;2024-01-10T00:16:00;99973.41;;;1.92;54.37
68137;BME280;54939;50.826;9.030;2024-01-10T00:16:31;99978.72;;;1.91;54.56
68137;BME280;54939;50.826;9.030;2024-01-10T00:17:01;99977.00;;;1.90;54.31
68137;BME280;54939;50.826;9.030;2024-01-10T00:17:32;99980.56;;;1.89;54.27
68137;BME280;54939;50.826;9.030;2024-01-10T00:18:02;99976.09;;;1.91;54.54
68137;BME280;54939;50.826;9.030;2024-01-10T00:18:33;99985.72;;;1.92;54.47
68137;BME280;54939;50.826;9.030;2024-01-10T00:19:03;99982.16;;;1.93;54.56
68137;BME280;54939;50.826;9.030;2024-01-10T00:19:33;99978.66;;;1.92;54.83
68137;BME280;54939;50.826;9.030;2024-01-10T00:20:04;99983.94;;;1.92;54.90
68137;BME280;54939;50.826;9.030;2024-01-10T00:20:34;99975.13;;;1.93;54.33
68137;BME280;54939;50.826;9.030;2024-01-10T00:21:10;99975.94;;;1.94;54.31
68137;BME280;54939;50.826;9.030;2024-01-10T00:21:41;99982.16;;;1.93;54.04
68137;BME280;54939;50.826;9.030;2024-01-10T00:22:15;99976.94;;;1.91;54.50
68137;BME280;54939;50.826;9.030;2024-01-10T00:22:46;99977.81;;;1.92;54.37
68137;BME280;54939;50.826;9.030;2024-01-10T00:23:16;99991.84;;;1.92;54.56
68137;BME280;54939;50.826;9.030;2024-01-10T00:23:46;99984.78;;;1.93;54.78
68137;BME280;54939;50.826;9.030;2024-01-10T00:24:22;99981.31;;;1.92;54.94
68137;BME280;54939;50.826;9.030;2024-01-10T00:24:58;99983.94;;;1.92;54.77
68137;BME280;54939;50.826;9.030;2024-01-10T00:25:33;99978.66;;;1.92;54.70
68137;BME280;54939;50.826;9.030;2024-01-10T00:26:03;99975.94;;;1.94;54.62
68137;BME280;54939;50.826;9.030;2024-01-10T00:26:34;99969.00;;;1.93;54.69
68137;BME280;54939;50.826;9.030;2024-01-10T00:27:05;99975.13;;;1.93;54.86
68137;BME280;54939;50.826;9.030;2024-01-10T00:27:51;99975.13;;;1.93;54.70
68137;BME280;54939;50.826;9.030;2024-01-10T00:28:25;99978.66;;;1.92;54.66
68137;BME280;54939;50.826;9.030;2024-01-10T00:28:55;99972.53;;;1.92;54.60
68137;BME280;54939;50.826;9.030;2024-01-10T00:29:25;99971.69;;;1.91;54.63
68137;BME280;54939;50.826;9.030;2024-01-10T00:29:56;99971.69;;;1.91;54.59
68137;BME280;54939;50.826;9.030;2024-01-10T00:31:18;99978.78;;;1.89;54.39
68137;BME280;54939;50.826;9.030;2024-01-10T00:31:57;99977.00;;;1.90;54.45
68137;BME280;54939;50.826;9.030;2024-01-10T00:32:32;99974.44;;;1.88;54.74
68137;BME280;54939;50.826;9.030;2024-01-10T00:33:02;99977.00;;;1.90;54.70
68137;BME280;54939;50.826;9.030;2024-01-10T00:33:33;99969.97;;;1.90;54.63
68137;BME280;54939;50.826;9.030;2024-01-10T00:34:03;99974.44;;;1.88;54.68
68137;BME280;54939;50.826;9.030;2024-01-10T00:34:34;99973.53;;;1.89;54.62
68137;BME280;54939;50.826;9.030;2024-01-10T00:35:04;99965.69;;;1.88;54.74
68137;BME280;54939;50.826;9.030;2024-01-10T00:35:37;99965.63;;;1.89;54.47
68137;BME280;54939;50.826;9.030;2024-01-10T00:36:08;99969.13;;;1.90;54.59
68137;BME280;54939;50.826;9.030;2024-01-10T00:36:38;99958.59;;;1.90;54.49
68137;BME280;54939;50.826;9.030;2024-01-10T00:37:12;99962.94;;;1.91;54.55
68137;BME280;54939;50.826;9.030;2024-01-10T00:37:43;99962.06;;;1.90;54.59
68137;BME280;54939;50.826;9.030;2024-01-10T00:38:13;99956.81;;;1.90;54.73
68137;BME280;54939;50.826;9.030;2024-01-10T00:38:43;99964.72;;;1.90;54.57
68137;BME280;54939;50.826;9.030;2024-01-10T00:39:14;99950.75;;;1.88;54.73
68137;BME280;54939;50.826;9.030;2024-01-10T00:39:45;99954.16;;;1.90;54.67
68137;BME280;54939;50.826;9.030;2024-01-10T00:40:16;99953.31;;;1.90;54.67
68137;BME280;54939;50.826;9.030;2024-01-10T00:40:46;99946.28;;;1.90;54.62
68137;BME280;54939;50.826;9.030;2024-01-10T00:41:17;99941.94;;;1.89;54.71
68137;BME280;54939;50.826;9.030;2024-01-10T00:41:47;99940.22;;;1.88;54.73
68137;BME280;54939;50.826;9.030;2024-01-10T00:42:20;99942.78;;;1.90;54.54
68137;BME280;54939;50.826;9.030;2024-01-10T00:42:51;99938.44;;;1.89;54.83
68137;BME280;54939;50.826;9.030;2024-01-10T00:43:21;99937.56;;;1.88;54.71
68137;BME280;54939;50.826;9.030;2024-01-10T00:43:51;99939.34;;;1.88;54.82
68137;BME280;54939;50.826;9.030;2024-01-10T00:44:25;99940.22;;;1.88;54.60
68137;BME280;54939;50.826;9.030;2024-01-10T00:45:05;99939.34;;;1.88;54.66
68137;BME280;54939;50.826;9.030;2024-01-10T00:45:36;99940.22;;;1.88;54.66
68137;BME280;54939;50.826;9.030;2024-01-10T00:46:06;99943.69;;;1.89;54.44
68137;BME280;54939;50.826;9.030;2024-01-10T00:46:40;99941.13;;;1.87;54.59
68137;BME280;54939;50.826;9.030;2024-01-10T00:47:11;99941.13;;;1.87;54.47
68137;BME280;54939;50.826;9.030;2024-01-10T00:47:41;99946.41;;;1.87;54.48
68137;BME280;54939;50.826;9.030;2024-01-10T00:48:11;99943.75;;;1.87;54.48
68137;BME280;54939;50.826;9.030;2024-01-10T00:48:49;99946.41;;;1.87;54.63
68137;BME280;54939;50.826;9.030;2024-01-10T00:49:23;99948.16;;;1.87;54.82
68137;BME280;54939;50.826;9.030;2024-01-10T00:49:56;99944.72;;;1.86;54.82
68137;BME280;54939;50.826;9.030;2024-01-10T00:50:30;99946.50;;;1.86;54.84
68137;BME280;54939;50.826;9.030;2024-01-10T00:51:04;99946.50;;;1.86;54.53
68137;BME280;54939;50.826;9.030;2024-01-10T00:51:38;99944.72;;;1.86;54.70
68137;BME280;54939;50.826;9.030;2024-01-10T00:52:08;99946.41;;;1.87;54.55
68137;BME280;54939;50.826;9.030;2024-01-10T00:52:46;99945.63;;;1.85;54.60
68137;BME280;54939;50.826;9.030;2024-01-10T00:53:16;99942.09;;;1.86;54.73
68137;BME280;54939;50.826;9.030;2024-01-10T00:53:47;99943.00;;;1.85;54.35
68137;BME280;54939;50.826;9.030;2024-01-10T00:54:17;99944.72;;;1.86;54.59
68137;BME280;54939;50.826;9.030;2024-01-10T00:54:54;99941.13;;;1.87;54.52
68137;BME280;54939;50.826;9.030;2024-01-10T00:55:24;99939.44;;;1.86;54.74
68137;BME280;54939;50.826;9.030;2024-01-10T00:55:55;99932.47;;;1.85;54.69
68137;BME280;54939;50.826;9.030;2024-01-10T00:56:25;99941.22;;;1.86;55.03
68137;BME280;54939;50.826;9.030;2024-01-10T00:56:55;99938.59;;;1.86;54.96
68137;BME280;54939;50.826;9.030;2024-01-10T00:57:34;99937.63;;;1.87;55.08
68137;BME280;54939;50.826;9.030;2024-01-10T00:58:13;99934.19;;;1.86;55.00
68137;BME280;54939;50.826;9.030;2024-01-10T00:58:50;99939.44;;;1.86;55.19
68137;BME280;54939;50.826;9.030;2024-01-10T00:59:28;99935.00;;;1.87;55.16
68137;BME280;54939;50.826;9.030;2024-01-10T01:00:02;99938.66;;;1.84;54.98
68137;BME280;54939;50.826;9.030;2024-01-10T01:00:35;99938.50;;;1.87;54.81
68137;BME280;54939;50.826;9.030;2024-01-10T01:01:08;99937.63;;;1.87;54.93
68137;BME280;54939;50.826;9.030;2024-01-10T01:01:39;99939.34;;;1.88;54.87
68137;BME280;54939;50.826;9.030;2024-01-10T01:02:10;99942.00;;;1.88;54.67
68137;BME280;54939;50.826;9.030;2024-01-10T01:02:40;99938.50;;;1.87;54.65
68137;BME280;54939;50.826;9.030;2024-01-10T01:03:10;99927.09;;;1.87;54.47
68137;BME280;54939;50.826;9.030;2024-01-10T01:03:42;99932.38;;;1.87;54.66
68137;BME280;54939;50.826;9.030;2024-01-10T01:04:12;99934.09;;;1.88;54.77
68137;BME280;54939;50.826;9.030;2024-01-10T01:04:42;99928.91;;;1.86;54.75
68137;BME280;54939;50.826;9.030;2024-01-10T01:05:13;99926.19;;;1.88;54.83
68137;BME280;54939;50.826;9.030;2024-01-10T01:05:43;99930.53;;;1.89;54.77
68137;BME280;54939;50.826;9.030;2024-01-10T01:06:13;99923.56;;;1.88;54.83
68137;BME280;54939;50.826;9.030;2024-01-10T01:06:44;99921.00;;;1.86;54.91
68137;BME280;54939;50.826;9.030;2024-01-10T01:07:16;99919.31;;;1.85;54.78
68137;BME280;54939;50.826;9.030;2024-01-10T01:07:50;99914.97;;;1.84;54.91
68137;BME280;54939;50.826;9.030;2024-01-10T01:08:22;99920.22;;;1.84;54.63
68137;BME280;54939;50.826;9.030;2024-01-10T01:08:52;99921.09;;;1.85;54.62
68137;BME280;54939;50.826;9.030;2024-01-10T01:09:22;99923.72;;;1.85;54.55
68137;BME280;54939;50.826;9.030;2024-01-10T01:09:55;99924.56;;;1.85;54.44
68137;BME280;54939;50.826;9.030;2024-01-10T01:10:26;99921.00;;;1.86;54.60
68137;BME280;54939;50.826;9.030;2024-01-10T01:10:56;99918.38;;;1.86;54.66
68137;BME280;54939;50.826;9.030;2024-01-10T01:11:26;99925.34;;;1.87;54.72
68137;BME280;54939;50.826;9.030;2024-01-10T01:11:57;99925.34;;;1.87;54.71
68137;BME280;54939;50.826;9.030;2024-01-10T01:12:27;99921.84;;;1.87;54.87
68137;BME280;54939;50.826;9.030;2024-01-10T01:12:57;99920.22;;;1.84;54.70
68137;BME280;54939;50.826;9.030;2024-01-10T01:13:27;99915.03;;;1.83;54.93
68137;BME280;54939;50.826;9.030;2024-01-10T01:13:58;99915.03;;;1.83;54.92
68137;BME280;54939;50.826;9.030;2024-01-10T01:14:28;99915.88;;;1.83;54.62
68137;BME280;54939;50.826;9.030;2024-01-10T01:14:58;99917.59;;;1.84;54.87
68137;BME280;54939;50.826;9.030;2024-01-10T01:15:28;99918.50;;;1.83;54.90
68137;BME280;54939;50.826;9.030;2024-01-10T01:16:01;99915.88;;;1.83;54.76
68137;BME280;54939;50.826;9.030;2024-01-10T01:16:35;99915.88;;;1.83;55.02
68137;BME280;54939;50.826;9.030;2024-01-10T01:17:05;99915.88;;;1.83;54.88
68137;BME280;54939;50.826;9.030;2024-01-10T01:17:36;99917.59;;;1.84;54.74
68137;BME280;54939;50.826;9.030;2024-01-10T01:18:06;99917.53;;;1.86;54.59
68137;BME280;54939;50.826;9.030;2024-01-10T01:18:37;99914.81;;;1.87;54.76
68137;BME280;54939;50.826;9.030;2024-01-10T01:19:12;99921.78;;;1.88;54.90
68137;BME280;54939;50.826;9.030;2024-01-10T01:19:43;99921.78;;;1.88;55.02
68137;BME280;54939;50.826;9.030;2024-01-10T01:20:13;99914.81;;;1.87;54.79
68137;BME280;54939;50.826;9.030;2024-01-10T01:20:43;99909.63;;;1.86;54.89
68137;BME280;54939;50.826;9.030;2024-01-10T01:21:13;99909.53;;;1.87;54.80
68137;BME280;54939;50.826;9.030;2024-01-10T01:21:44;99907.06;;;1.84;54.92
68137;BME280;54939;50.826;9.030;2024-01-10T01:22:14;99907.06;;;1.84;54.83
68137;BME280;54939;50.826;9.030;2024-01-10T01:22:44;99907.91;;;1.85;54.73
68137;BME280;54939;50.826;9.030;2024-01-10T01:23:14;99904.44;;;1.84;54.91
68137;BME280;54939;50.826;9.030;2024-01-10T01:23:45;99904.44;;;1.84;54.78
68137;BME280;54939;50.826;9.030;2024-01-10T01:24:15;99899.22;;;1.83;54.78
68137;BME280;54939;50.826;9.030;2024-01-10T01:24:45;99906.25;;;1.82;54.87
68137;BME280;54939;50.826;9.030;2024-01-10T01:25:16;99903.63;;;1.82;54.85
68137;BME280;54939;50.826;9.030;2024-01-10T01:25:46;99904.50;;;1.83;54.88
68137;BME280;54939;50.826;9.030;2024-01-10T01:26:17;99909.81;;;1.81;54.73
68137;BME280;54939;50.826;9.030;2024-01-10T01:26:57;99909.69;;;1.84;55.35
68137;BME280;54939;50.826;9.030;2024-01-10T01:27:33;99907.91;;;1.85;55.34
68137;BME280;54939;50.826;9.030;2024-01-10T01:28:07;99912.31;;;1.84;54.79
68137;BME280;54939;50.826;9.030;2024-01-10T01:28:40;99915.88;;;1.83;55.10
68137;BME280;54939;50.826;9.030;2024-01-10T01:29:14;99916.72;;;1.84;55.05
68137;BME280;54939;50.826;9.030;2024-01-10T01:29:46;99911.41;;;1.85;54.79
68137;BME280;54939;50.826;9.030;2024-01-10T01:30:17;99907.91;;;1.85;54.79
68137;BME280;54939;50.826;9.030;2024-01-10T01:30:56;99914.03;;;1.85;54.80
68137;BME280;54939;50.826;9.030;2024-01-10T01:31:32;99910.63;;;1.83;54.94
68137;BME280;54939;50.826;9.030;2024-01-10T01:32:08;99915.88;;;1.83;54.86
68137;BME280;54939;50.826;9.030;2024-01-10T01:32:45;99925.50;;;1.84;55.07
68137;BME280;54939;50.826;9.030;2024-01-10T01:33:18;99922.84;;;1.84;55.24
68137;BME280;54939;50.826;9.030;2024-01-10T01:33:53;99925.50;;;1.84;55.20
68137;BME280;54939;50.826;9.030;2024-01-10T01:34:25;99931.63;;;1.85;55.05
68137;BME280;54939;50.826;9.030;2024-01-10T01:34:58;99927.25;;;1.84;54.96
68137;BME280;54939;50.826;9.030;2024-01-10T01:35:29;99927.31;;;1.82;55.00
68137;BME280;54939;50.826;9.030;2024-01-10T01:35:59;99928.25;;;1.81;54.80
68137;BME280;54939;50.826;9.030;2024-01-10T01:36:30;99934.44;;;1.80;55.20
68137;BME280;54939;50.826;9.030;2024-01-10T01:37:00;99930.94;;;1.80;55.13
68137;BME280;54939;50.826;9.030;2024-01-10T01:37:31;99930.94;;;1.80;55.28
68137;BME280;54939;50.826;9.030;2024-01-10T01:38:01;99929.16;;;1.80;55.45
68137;BME280;54939;50.826;9.030;2024-01-10T01:38:31;99937.91;;;1.81;55.31
68137;BME280;54939;50.826;9.030;2024-01-10T01:39:03;99930.94;;;1.80;55.25
68137;BME280;54939;50.826;9.030;2024-01-10T01:39:36;99937.00;;;1.82;55.27
68137;BME280;54939;50.826;9.030;2024-01-10T01:40:06;99929.97;;;1.82;55.17
68137;BME280;54939;50.826;9.030;2024-01-10T01:40:40;99933.44;;;1.83;55.09
68137;BME280;54939;50.826;9.030;2024-01-10T01:41:29;99925.56;;;1.83;55.12
68137;BME280;54939;50.826;9.030;2024-01-10T01:42:09;99920.28;;;1.83;55.28
68137;BME280;54939;50.826;9.030;2024-01-10T01:42:40;99924.63;;;1.84;55.15
68137;BME280;54939;50.826;9.030;2024-01-10T01:43:23;99918.50;;;1.83;55.44
68137;BME280;54939;50.826;9.030;2024-01-10T01:43:54;99911.47;;;1.84;55.00
68137;BME280;54939;50.826;9.030;2024-01-10T01:44:24;99915.88;;;1.83;55.22
68137;BME280;54939;50.826;9.030;2024-01-10T01:44:54;99917.66;;;1.83;55.11
68137;BME280;54939;50.826;9.030;2024-01-10T01:45:24;99914.16;;;1.82;55.09
68137;BME280;54939;50.826;9.030;2024-01-10T01:45:55;99918.56;;;1.82;55.06
68137;BME280;54939;50.826;9.030;2024-01-10T01:46:29;99923.84;;;1.82;55.22
68137;BME280;54939;50.826;9.030;2024-01-10T01:47:00;99917.72;;;1.81;55.25
68137;BME280;54939;50.826;9.030;2024-01-10T01:47:31;99909.81;;;1.81;55.02
68137;BME280;54939;50.826;9.030;2024-01-10T01:48:02;99909.88;;;1.80;54.89
68137;BME280;54939;50.826;9.030;2024-01-10T01:48:32;99912.50;;;1.80;54.87
68137;BME280;54939;50.826;9.030;2024-01-10T01:49:03;99909.88;;;1.80;54.98
68137;BME280;54939;50.826;9.030;2024-01-10T01:49:33;99916.00;;;1.80;55.14
68137;BME280;54939;50.826;9.030;2024-01-10T01:50:09;99912.50;;;1.80;55.13
68137;BME280;54939;50.826;9.030;2024-01-10T01:50:40;99909.88;;;1.80;55.23
68137;BME280;54939;50.826;9.030;2024-01-10T01:51:11;99898.53;;;1.79;55.21
68137;BME280;54939;50.826;9.030;2024-01-10T01:51:42;99905.41;;;1.82;55.29
68137;BME280;54939;50.826;9.030;2024-01-10T01:52:12;99898.44;;;1.81;55.13
68137;BME280;54939;50.826;9.030;2024-01-10T01:52:43;99901.91;;;1.81;55.02
68137;BME280;54939;50.826;9.030;2024-01-10T01:53:14;99899.34;;;1.80;54.98
68137;BME280;54939;50.826;9.030;2024-01-10T01:53:45;99897.56;;;1.80;54.99
68137;BME280;54939;50.826;9.030;2024-01-10T01:54:15;99896.66;;;1.81;54.89
68137;BME280;54939;50.826;9.030;2024-01-10T01:54:45;99901.06;;;1.81;54.98
68137;BME280;54939;50.826;9.030;2024-01-10T01:55:16;99896.72;;;1.80;54.90
68137;BME280;54939;50.826;9.030;2024-01-10T01:55:47;99887.03;;;1.80;55.05
68137;BME280;54939;50.826;9.030;2024-01-10T01:56:18;99900.31;;;1.79;54.74
68137;BME280;54939;50.826;9.030;2024-01-10T01:56:49;99897.72;;;1.77;54.75
68137;BME280;54939;50.826;9.030;2024-01-10T01:57:22;99895.03;;;1.79;54.87
68137;BME280;54939;50.826;9.030;2024-01-10T01:57:53;99898.59;;;1.78;54.78
68137;BME280;54939;50.826;9.030;2024-01-10T01:58:24;99894.25;;;1.77;54.75
68137;BME280;54939;50.826;9.030;2024-01-10T01:58:54;99893.38;;;1.76;55.03
68137;BME280;54939;50.826;9.030;2024-01-10T01:59:27;99892.47;;;1.77;55.14
68137;BME280;54939;50.826;9.030;2024-01-10T01:59:58;99893.38;;;1.76;54.82
68137;BME280;54939;50.826;9.030;2024-01-10T02:00:28;99892.47;;;1.77;55.13
68137;BME280;54939;50.826;9.030;2024-01-10T02:01:01;99894.25;;;1.77;54.79
68137;BME280;54939;50.826;9.030;2024-01-10T02:01:32;99897.78;;;1.76;54.81
68137;BME280;54939;50.826;9.030;2024-01-10T02:02:02;99902.13;;;1.77;54.98
68137;BME280;54939;50.826;9.030;2024-01-10T02:02:33;99898.66;;;1.76;54.90
68137;BME280;54939;50.826;9.030;2024-01-10T02:03:04;99899.50;;;1.77;54.76
68137;BME280;54939;50.826;9.030;2024-01-10T02:03:35;99896.88;;;1.77;55.20
68137;BME280;54939;50.826;9.030;2024-01-10T02:04:05;99895.09;;;1.77;55.10
68137;BME280;54939;50.826;9.030;2024-01-10T02:04:36;99896.88;;;1.77;55.09
68137;BME280;54939;50.826;9.030;2024-01-10T02:05:06;99898.59;;;1.78;55.21
68137;BME280;54939;50.826;9.030;2024-01-10T02:05:37;99903.00;;;1.77;54.94
68137;BME280;54939;50.826;9.030;2024-01-10T02:06:07;99900.38;;;1.77;54.95
68137;BME280;54939;50.826;9.030;2024-01-10T02:06:37;99898.66;;;1.76;54.86
68137;BME280;54939;50.826;9.030;2024-01-10T02:07:08;99900.44;;;1.76;54.96
68137;BME280;54939;50.826;9.030;2024-01-10T02:07:41;99899.56;;;1.75;54.92
68137;BME280;54939;50.826;9.030;2024-01-10T02:08:11;99895.09;;;1.77;55.21
68137;BME280;54939;50.826;9.030;2024-01-10T02:08:41;99895.03;;;1.79;55.30
68137;BME280;54939;50.826;9.030;2024-01-10T02:09:12;99901.16;;;1.79;55.10
68137;BME280;54939;50.826;9.030;2024-01-10T02:09:42;99899.34;;;1.80;54.76
68137;BME280;54939;50.826;9.030;2024-01-10T02:10:12;99894.94;;;1.80;54.79
68137;BME280;54939;50.826;9.030;2024-01-10T02:10:43;99897.56;;;1.80;54.69
68137;BME280;54939;50.826;9.030;2024-01-10T02:11:13;99901.97;;;1.80;54.83
68137;BME280;54939;50.826;9.030;2024-01-10T02:11:43;99898.53;;;1.79;55.04
68137;BME280;54939;50.826;9.030;2024-01-10T02:12:13;99900.31;;;1.79;54.71
68137;BME280;54939;50.826;9.030;2024-01-10T02:12:44;99902.06;;;1.78;54.98
68137;BME280;54939;50.826;9.030;2024-01-10T02:13:15;99898.59;;;1.78;54.77
68137;BME280;54939;50.826;9.030;2024-01-10T02:13:45;99898.59;;;1.78;54.91
68137;BME280;54939;50.826;9.030;2024-01-10T02:14:16;99896.00;;;1.76;55.03
68137;BME280;54939;50.826;9.030;2024-01-10T02:14:46;99894.19;;;1.78;55.08
68137;BME280;54939;50.826;9.030;2024-01-10T02:15:17;99900.31;;;1.79;54.83
68137;BME280;54939;50.826;9.030;2024-01-10T02:15:47;99900.31;;;1.79;54.79
68137;BME280;54939;50.826;9.030;2024-01-10T02:16:21;99896.81;;;1.78;54.94
68137;BME280;54939;50.826;9.030;2024-01-10T02:16:55;99895.94;;;1.78;55.03
68137;BME280;54939;50.826;9.030;2024-01-10T02:17:29;99904.84;;;1.75;55.03
68137;BME280;54939;50.826;9.030;2024-01-10T02:17:59;99896.94;;;1.75;54.76
68137;BME280;54939;50.826;9.030;2024-01-10T02:18:34;99897.94;;;1.73;55.22
68137;BME280;54939;50.826;9.030;2024-01-10T02:19:20;99898.78;;;1.73;54.83
68137;BME280;54939;50.826;9.030;2024-01-10T02:20:07;99907.47;;;1.75;55.07
68137;BME280;54939;50.826;9.030;2024-01-10T02:20:38;99899.50;;;1.77;54.98
68137;BME280;54939;50.826;9.030;2024-01-10T02:21:08;99902.19;;;1.75;54.97
68137;BME280;54939;50.826;9.030;2024-01-10T02:21:39;99900.50;;;1.74;55.03
68137;BME280;54939;50.826;9.030;2024-01-10T02:22:09;99896.94;;;1.75;54.91
68137;BME280;54939;50.826;9.030;2024-01-10T02:22:41;99896.94;;;1.75;55.19
68137;BME280;54939;50.826;9.030;2024-01-10T02:23:13;99902.13;;;1.77;54.81
68137;BME280;54939;50.826;9.030;2024-01-10T02:23:44;99903.06;;;1.76;55.17
68137;BME280;54939;50.826;9.030;2024-01-10T02:24:14;99898.72;;;1.75;55.13
68137;BME280;54939;50.826;9.030;2024-01-10T02:24:44;99895.22;;;1.74;55.10
68137;BME280;54939;50.826;9.030;2024-01-10T02:25:15;99897.78;;;1.76;55.05
68137;BME280;54939;50.826;9.030;2024-01-10T02:25:45;99895.16;;;1.76;54.91
68137;BME280;54939;50.826;9.030;2024-01-10T02:26:15;99892.59;;;1.74;55.04
68137;BME280;54939;50.826;9.030;2024-01-10T02:26:46;99897.84;;;1.74;54.91
68137;BME280;54939;50.826;9.030;2024-01-10T02:27:16;99895.09;;;1.77;54.90
68137;BME280;54939;50.826;9.030;2024-01-10T02:27:46;99896.00;;;1.76;54.95
68137;BME280;54939;50.826;9.030;2024-01-10T02:28:18;99892.53;;;1.76;55.19
68137;BME280;54939;50.826;9.030;2024-01-10T02:28:48;99889.97;;;1.74;55.15
68137;BME280;54939;50.826;9.030;2024-01-10T02:29:18;99898.78;;;1.73;55.04
68137;BME280;54939;50.826;9.030;2024-01-10T02:29:48;99890.97;;;1.72;55.02
68137;BME280;54939;50.826;9.030;2024-01-10T02:30:19;99890.97;;;1.72;54.89
68137;BME280;54939;50.826;9.030;2024-01-10T02:30:50;99892.75;;;1.71;54.89
68137;BME280;54939;50.826;9.030;2024-01-10T02:31:21;99891.88;;;1.71;55.18
68137;BME280;54939;50.826;9.030;2024-01-10T02:31:51;99882.22;;;1.71;55.20
68137;BME280;54939;50.826;9.030;2024-01-10T02:32:22;99882.22;;;1.71;55.08
68137;BME280;54939;50.826;9.030;2024-01-10T02:32:53;99886.63;;;1.71;54.77
68137;BME280;54939;50.826;9.030;2024-01-10T02:33:23;99891.03;;;1.70;55.03
68137;BME280;54939;50.826;9.030;2024-01-10T02:33:54;99889.19;;;1.72;54.98
68137;BME280;54939;50.826;9.030;2024-01-10T02:34:24;99887.41;;;1.73;55.06
68137;BME280;54939;50.826;9.030;2024-01-10T02:34:54;99883.94;;;1.72;54.83
68137;BME280;54939;50.826;9.030;2024-01-10T02:35:24;99877.72;;;1.73;55.10
68137;BME280;54939;50.826;9.030;2024-01-10T02:35:56;99876.88;;;1.73;55.04
68137;BME280;54939;50.826;9.030;2024-01-10T02:36:26;99877.72;;;1.73;55.18
68137;BME280;54939;50.826;9.030;2024-01-10T02:36:57;99881.31;;;1.72;54.81
68137;BME280;54939;50.826;9.030;2024-01-10T02:37:27;99883.06;;;1.72;54.67
68137;BME280;54939;50.826;9.030;2024-01-10T02:37:58;99875.94;;;1.74;54.75
68137;BME280;54939;50.826;9.030;2024-01-10T02:38:28;99883.84;;;1.74;54.73
68137;BME280;54939;50.826;9.030;2024-01-10T02:38:58;99874.25;;;1.73;54.98
68137;BME280;54939;50.826;9.030;2024-01-10T02:39:29;99882.16;;;1.73;55.05
68137;BME280;54939;50.826;9.030;2024-01-10T02:40:00;99882.97;;;1.73;55.05
68137;BME280;54939;50.826;9.030;2024-01-10T02:40:30;99874.25;;;1.73;55.11
68137;BME280;54939;50.826;9.030;2024-01-10T02:41:00;99881.31;;;1.72;55.11
68137;BME280;54939;50.826;9.030;2024-01-10T02:41:32;99882.84;;;1.76;55.45
68137;BME280;54939;50.826;9.030;2024-01-10T02:42:02;99878.56;;;1.74;55.15
68137;BME280;54939;50.826;9.030;2024-01-10T02:42:34;99874.16;;;1.74;55.21
68137;BME280;54939;50.826;9.030;2024-01-10T02:43:04;99875.88;;;1.75;55.07
68137;BME280;54939;50.826;9.030;2024-01-10T02:43:34;99874.25;;;1.73;55.27
68137;BME280;54939;50.826;9.030;2024-01-10T02:44:05;99870.78;;;1.72;54.96
68137;BME280;54939;50.826;9.030;2024-01-10T02:44:35;99867.28;;;1.72;54.92
68137;BME280;54939;50.826;9.030;2024-01-10T02:45:11;99880.44;;;1.72;55.19
68137;BME280;54939;50.826;9.030;2024-01-10T02:45:44;99872.53;;;1.72;55.23
68137;BME280;54939;50.826;9.030;2024-01-10T02:46:16;99871.75;;;1.70;55.21
68137;BME280;54939;50.826;9.030;2024-01-10T02:46:58;99877.88;;;1.70;55.07
68137;BME280;54939;50.826;9.030;2024-01-10T02:47:28;99876.16;;;1.69;55.15
68137;BME280;54939;50.826;9.030;2024-01-10T02:47:59;99870.91;;;1.69;55.21
68137;BME280;54939;50.826;9.030;2024-01-10T02:48:29;99869.19;;;1.68;55.11
68137;BME280;54939;50.826;9.030;2024-01-10T02:48:59;99869.19;;;1.68;55.26
68137;BME280;54939;50.826;9.030;2024-01-10T02:49:30;99864.84;;;1.67;55.26
68137;BME280;54939;50.826;9.030;2024-01-10T02:50:00;99863.91;;;1.68;55.45
68137;BME280;54939;50.826;9.030;2024-01-10T02:50:30;99860.31;;;1.71;54.98